• Join FlightAware (Why Join?)
  • Login
  • US Flag 
05:43PM EDT


 

Airport Tracker/Info


-or-


 

Live Flight TrackerFlight Track Log ✈ TMC875 ✈ 18-Apr-2013 ✈ KJQF - KTPA

Flight Track Log - Related Links

Times and Time Zones

All times are in EDT time to prevent confusion due to time zone crossing. See the TMC875 flight status page for this flight to view local times or setup timezone preferences in your user account.

Time Position Orientation Groundspeed Altitude Reporting Facility
EDT Latitude Longitude Course Direction KTS MPH feet Rate Location/Type
10:07PM 35.3483 -80.6572 189° South 236 272 3,000  Level Atlanta Center
10:08PM 35.3406 -80.6111 102° East 259 298 3,600 1,440 Climbing FAA TRACON SMA TRACON (SMA)
10:08PM 35.3244 -80.5953 141° Southeast 246 283 4,300 3,060 Climbing FAA TRACON SMA TRACON (SMA)
10:09PM 35.2814 -80.5628 148° Southeast 264 304 6,700 3,420 Climbing FAA TRACON SMA TRACON (SMA)
10:09PM 35.2611 -80.5478 149° Southeast 270 311 7,800 3,120 Climbing FAA TRACON SMA TRACON (SMA)
10:10PM 35.2381 -80.5411 167° South 253 291 8,800 3,660 Climbing FAA TRACON SMA TRACON (SMA)
10:10PM 35.2100 -80.5533 200° South 268 308 10,200 3,780 Climbing FAA TRACON SMA TRACON (SMA)
10:10PM 35.1900 -80.5678 211° Southwest 255 293 11,400 3,420 Climbing FAA TRACON SMA TRACON (SMA)
10:11PM 35.1700 -80.5828 212° Southwest 270 311 12,500 3,600 Climbing FAA TRACON SMA TRACON (SMA)
10:11PM 35.1458 -80.6017 213° Southwest 269 310 13,800 3,300 Climbing FAA TRACON SMA TRACON (SMA)
10:11PM 35.1264 -80.6169 213° Southwest 268 308 14,700 1,680 Climbing FAA TRACON SMA TRACON (SMA)
10:12PM 35.1214 -80.6206 211° Southwest 268 308 14,900 240 Climbing FAA TRACON SMA TRACON (SMA)
10:12PM 35.1214 -80.6206 107° East 268 308 14,900 2,400 Level FAA TRACON SMA TRACON (SMA)
10:13PM 34.7078 -81.0552 189° South  Level FlightAware Approximate
10:15PM 34.8653 -80.7444 202° Southwest 314 361 22,200  Level Jacksonville Center
10:16PM 34.7764 -80.7872 202° Southwest 330 380 24,000 1,920 Climbing Jacksonville Center
10:17PM 34.6833 -80.8272 199° South 352 405 26,100 1,980 Climbing Jacksonville Center
10:18PM 34.5858 -80.8675 199° South 372 428 28,000 1,860 Climbing Jacksonville Center
10:19PM 34.4886 -80.9150 202° Southwest 366 421 29,900 1,380 Climbing Jacksonville Center
10:20PM 34.3972 -80.9525 199° South 375 432 30,800 900 Climbing Jacksonville Center
10:21PM 34.2897 -81.0000 200° South 395 455 31,800 1,200 Climbing Jacksonville Center
10:22PM 34.1736 -81.0503 200° South 400 460 33,200 1,320 Climbing Jacksonville Center
10:23PM 34.0614 -81.0953 198° South 415 478 34,500 1,260 Climbing Jacksonville Center
10:24PM 33.9517 -81.1425 200° South 422 486 35,800 1,320 Climbing Jacksonville Center
10:25PM 33.8436 -81.1847 198° South 422 486 37,200 1,140 Climbing Jacksonville Center
10:26PM 33.7461 -81.2317 202° Southwest 422 486 38,100 900 Climbing Jacksonville Center
10:27PM 33.6383 -81.2786 200° South 422 486 39,100 900 Climbing Jacksonville Center
10:28PM 33.5261 -81.3156 195° South 422 486 39,900 420 Climbing Jacksonville Center
10:29PM 33.4117 -81.3472 193° South 422 486 40,000  Climbing Jacksonville Center
10:30PM 33.2806 -81.3794 192° South 427 491 40,000 -60 Level Jacksonville Center
10:31PM 33.1683 -81.4136 194° South 441 507 39,900  Descending Jacksonville Center
10:32PM 33.0456 -81.4478 193° South 452 520 40,000  Climbing Jacksonville Center
10:33PM 32.9206 -81.4794 192° South 452 520 39,900 -60 Descending Jacksonville Center
10:34PM 32.7978 -81.5136 193° South 452 520 39,900  Level Jacksonville Center
10:35PM 32.6689 -81.5500 193° South 442 509 40,000  Climbing Jacksonville Center
10:36PM 32.5481 -81.5839 193° South 442 509 40,000  Level Jacksonville Center
10:37PM 32.4253 -81.6178 193° South 455 524 40,000  Level Jacksonville Center
10:38PM 32.3025 -81.6489 192° South 455 524 40,000  Level Jacksonville Center
10:39PM 32.1919 -81.6797 193° South 460 529 40,000  Level Jacksonville Center
10:40PM 32.0525 -81.7161 192° South 460 529 40,000  Level Jacksonville Center
10:41PM 31.9339 -81.7469 192° South 449 517 40,000  Level Jacksonville Center
10:42PM 31.8089 -81.7803 193° South 454 522 40,000  Level Jacksonville Center
10:43PM 31.6881 -81.8133 193° South 454 522 40,000  Level Jacksonville Center
10:44PM 31.5775 -81.8414 192° South 449 517 40,000  Level Jacksonville Center
10:45PM 31.4442 -81.8772 193° South 454 522 40,000 -60 Level Jacksonville Center
10:46PM 31.3214 -81.9100 193° South 449 517 39,900  Descending Jacksonville Center
10:47PM 31.2067 -81.9403 193° South 456 525 40,000  Climbing Jacksonville Center
10:48PM 31.0858 -81.9731 193° South 456 525 39,900  Descending Jacksonville Center
10:49PM 30.9608 -82.0058 193° South 456 525 40,000  Climbing Jacksonville Center
10:50PM 30.8400 -82.0383 193° South 451 519 40,000  Level Jacksonville Center
10:51PM 30.7192 -82.0708 193° South 451 519 40,000  Level Jacksonville Center
10:52PM 30.5919 -82.1033 192° South 451 519 40,000  Level Jacksonville Center
10:53PM 30.4606 -82.1311 190° South 451 519 40,000  Level Jacksonville Center
10:54PM 30.3356 -82.1633 193° South 451 519 40,000 -300 Level Jacksonville Center
10:55PM 30.2083 -82.1956 192° South 459 528 39,400 -900 Descending Jacksonville Center
10:56PM 30.0831 -82.2300 193° South 469 540 38,300 -1,260 Descending Jacksonville Center
10:57PM 29.9728 -82.2619 194° South 469 540 36,900 -1,560 Descending Jacksonville Center
10:58PM 29.8539 -82.2914 192° South 457 526 35,200 -1,800 Descending Jacksonville Center
10:59PM 29.7203 -82.3233 192° South 446 513 33,300 -1,800 Descending Jacksonville Center
11:00PM 29.6119 -82.3503 192° South 446 513 31,600 -2,280 Descending Jacksonville Center
11:01PM 29.4803 -82.3461 178° South 456 525 28,800 -2,760 Descending Jacksonville Center
11:02PM 29.3467 -82.3303 174° South 471 542 26,100 -2,760 Descending Jacksonville Center
11:03PM 29.2214 -82.3167 175° South 471 542 23,300 -2,640 Descending Jacksonville Center
11:04PM 29.1064 -82.3008 173° South 446 513 20,900 -2,400 Descending Jacksonville Center
11:05PM 29.0042 -82.2894 174° South 409 471 18,600 -2,220 Descending Jacksonville Center
11:06PM 28.9103 -82.3044 188° South 348 400 16,500 -2,100 Descending Jacksonville Center
11:07PM 28.7667 -82.3667 201° Southwest 315 362 13,000 -1,380 Descending Tampa TRACON
11:08PM 28.7000 -82.4333 221° Southwest 297 342 12,800 -840 Descending Tampa TRACON
11:09PM 28.6333 -82.4833 213° Southwest 291 335 11,400 -1,440 Descending Tampa TRACON
11:10PM 28.5500 -82.4833 180° South 282 325 10,000 -1,500 Descending Tampa TRACON
11:11PM 28.4833 -82.4667 168° South 276 318 8,600 -1,560 Descending Tampa TRACON
11:12PM 28.4000 -82.4667 180° South 270 311 7,100 -840 Descending Tampa TRACON
11:13PM 28.3333 -82.4833 192° South 258 297 7,000 -1,080 Descending Tampa TRACON
11:14PM 28.2833 -82.5167 210° Southwest 247 284 5,000 -1,380 Descending Tampa TRACON
11:15PM 28.2000 -82.5167 180° South 200 230 4,000 -900 Descending Tampa TRACON
11:16PM 28.1500 -82.5167 180° South 202 232 3,100 -960 Descending Tampa TRACON
11:17PM 28.1000 -82.5333 196° South 197 227 2,100 -1,020 Descending Tampa TRACON
11:18PM 28.0500 -82.5333 180° South 181 208 1,200 -840 Descending Tampa TRACON
11:19PM 28.0000 -82.5333 180° South 146 168 500 -720 Descending Tampa TRACON
11:21PM 27.9755 -82.5332 156° South  Level Estimated
11:28PM 27.9755 -82.5332 156° South  Level Estimated
11:29PM 27.9755 -82.5332 156° South  Level Estimated